ENQR

Snorre B Oilp

Snorre B Oilp, Norway
METAR ENQR 170050Z AUTO VRB29KT 9000NDV FEW012/// 11/10 Q1003 W///S6
Observed Flight Rules
Oct-17 @ 00:50 UTC (26 minutes ago)
Wind Clouds
Variable at 29 knots
  • Few at 1,200' AGL
Temperatures Readings
Current 11°C / 52°F
Dewpoint 10°C / 50°F
Humidity 94%
Altimeter 29.62" Hg
Pressure 1003 hPa
Elevation 10
METAR ENQR 170050Z AUTO VRB29KT 9000NDV FEW012/// 11/10 Q1003 W///S6
Observed Flight Rules
Oct-17 @ 00:50 UTC
(26 minutes ago)
Wind
Variable at 29 knots
Clouds
  • Few at 1,200' AGL
Temperature Dewpoint
11°C / 52°F 10°C / 50°F
Humidity Altimeter Pressure
94% 29.62" Hg 1003 hPa